createdAt,value
2019-06-26T00:02:25.278Z,101625.90
2019-06-26T00:04:59.787Z,101619.14
2019-06-26T00:07:34.395Z,101630.72
2019-06-26T00:10:09.267Z,101630.08
2019-06-26T00:12:44.435Z,101620.58
2019-06-26T00:15:19.109Z,101628.56
2019-06-26T00:17:53.552Z,101629.54
2019-06-26T00:20:28.057Z,101628.38
2019-06-26T00:23:02.589Z,101625.77
2019-06-26T00:25:37.102Z,101623.73
2019-06-26T00:28:11.652Z,101625.73
2019-06-26T00:30:46.189Z,101626.81
2019-06-26T00:33:20.712Z,101624.66
2019-06-26T00:35:55.213Z,101618.92
2019-06-26T00:38:29.735Z,101619.41
2019-06-26T00:41:04.237Z,101613.93
2019-06-26T00:43:42.537Z,101613.64
2019-06-26T00:46:14.917Z,101612.77
2019-06-26T00:48:49.533Z,101612.86
2019-06-26T00:51:24.222Z,101617.96
2019-06-26T00:53:59.141Z,101621.69
2019-06-26T00:56:33.565Z,101612.72
2019-06-26T00:59:08.087Z,101614.44
2019-06-26T01:01:42.863Z,101610.56
2019-06-26T01:04:28.255Z,101604.20
2019-06-26T01:07:02.686Z,101609.19
2019-06-26T01:09:37.210Z,101607.92
2019-06-26T01:12:11.770Z,101607.53
2019-06-26T01:14:46.350Z,101604.93
2019-06-26T01:17:20.841Z,101602.67
2019-06-26T01:19:55.362Z,101615.12
2019-06-26T01:22:29.926Z,101608.75
2019-06-26T01:25:05.590Z,101607.77
2019-06-26T01:27:40.098Z,101603.77
2019-06-26T01:30:15.086Z,101603.77
2019-06-26T01:32:49.728Z,101598.42
2019-06-26T01:35:24.274Z,101595.78
2019-06-26T01:37:58.781Z,101603.71
2019-06-26T01:40:33.309Z,101598.72
2019-06-26T01:43:07.806Z,101602.83
2019-06-26T01:45:42.340Z,101607.95
2019-06-26T01:48:16.837Z,101611.68
2019-06-26T01:50:51.381Z,101604.54
2019-06-26T01:53:27.018Z,101611.00
2019-06-26T01:56:01.521Z,101605.27
2019-06-26T01:58:36.062Z,101605.75
2019-06-26T02:01:10.692Z,101611.73
2019-06-26T02:03:45.174Z,101609.09
2019-06-26T02:06:19.819Z,101616.43
2019-06-26T02:08:54.260Z,101617.94
2019-06-26T02:11:28.801Z,101619.30
2019-06-26T02:14:03.483Z,101623.91
2019-06-26T02:16:37.940Z,101621.75
2019-06-26T02:19:14.093Z,101629.72
2019-06-26T02:21:48.606Z,101619.84
2019-06-26T02:24:23.104Z,101620.42
2019-06-26T02:26:57.692Z,101623.78
2019-06-26T02:29:32.197Z,101622.12
2019-06-26T02:32:07.786Z,101621.77
2019-06-26T02:34:42.217Z,101622.36
2019-06-26T02:37:16.735Z,101625.98
2019-06-26T02:39:51.259Z,101617.76
2019-06-26T02:42:26.940Z,101621.77
2019-06-26T02:45:01.612Z,101615.02
2019-06-26T02:47:37.130Z,101616.39
2019-06-26T02:50:11.626Z,101612.67
2019-06-26T02:52:46.078Z,101615.17
2019-06-26T02:55:20.585Z,101613.58
2019-06-26T02:57:55.115Z,101618.08
2019-06-26T03:00:29.579Z,101611.22
2019-06-26T03:03:04.079Z,101621.20
2019-06-26T03:05:38.678Z,101621.59
2019-06-26T03:08:13.108Z,101617.74
2019-06-26T03:10:47.612Z,101616.56
2019-06-26T03:13:23.099Z,101623.67
2019-06-26T03:15:57.618Z,101616.62
2019-06-26T03:18:32.226Z,101620.39
2019-06-26T03:21:06.746Z,101619.41
2019-06-26T03:23:41.253Z,101624.89
2019-06-26T03:26:15.691Z,101633.37
2019-06-26T03:28:51.204Z,101628.67
2019-06-26T03:31:25.662Z,101624.61
2019-06-26T03:34:00.229Z,101625.05
2019-06-26T03:36:34.740Z,101624.80
2019-06-26T03:39:09.419Z,101623.23
2019-06-26T03:41:43.873Z,101628.56
2019-06-26T03:44:18.451Z,101630.72
2019-06-26T03:46:52.898Z,101620.95
2019-06-26T03:49:27.332Z,101624.61
2019-06-26T03:52:01.781Z,101630.98
2019-06-26T03:54:36.191Z,101621.16
2019-06-26T03:57:10.787Z,101626.30
2019-06-26T03:59:45.221Z,101624.48
2019-06-26T04:02:19.675Z,101634.14
2019-06-26T04:04:54.098Z,101634.14
2019-06-26T04:07:28.602Z,101632.93
2019-06-26T04:10:03.432Z,101629.57
2019-06-26T04:12:37.968Z,101633.72
2019-06-26T04:15:12.657Z,101633.63
2019-06-26T04:17:47.119Z,101645.41
2019-06-26T04:20:21.740Z,101642.05
2019-06-26T04:22:56.255Z,101648.20
2019-06-26T04:25:31.668Z,101633.44
2019-06-26T04:28:06.559Z,101630.70
2019-06-26T04:30:41.160Z,101635.92
2019-06-26T04:33:15.667Z,101642.67
2019-06-26T04:35:50.092Z,101644.06
2019-06-26T04:38:24.596Z,101650.23
2019-06-26T04:40:59.026Z,101645.85
2019-06-26T04:43:33.458Z,101644.98
2019-06-26T04:46:07.932Z,101647.88
2019-06-26T04:48:42.393Z,101650.11
2019-06-26T04:51:16.803Z,101645.67
2019-06-26T04:53:51.325Z,101641.31
2019-06-26T04:56:25.754Z,101648.58
2019-06-26T04:59:00.196Z,101645.05
2019-06-26T05:01:34.621Z,101649.39
2019-06-26T05:04:09.087Z,101646.61
2019-06-26T05:06:43.582Z,101651.76
2019-06-26T05:09:18.193Z,101647.13
2019-06-26T05:11:52.702Z,101649.50
2019-06-26T05:14:27.223Z,101646.97
2019-06-26T05:17:01.745Z,101643.69
2019-06-26T05:19:36.183Z,101652.81
2019-06-26T05:22:10.576Z,101648.28
2019-06-26T05:24:46.478Z,101650.13
2019-06-26T05:27:21.119Z,101649.48
2019-06-26T05:29:55.562Z,101657.22
2019-06-26T05:32:30.063Z,101656.31
2019-06-26T05:35:09.990Z,101656.94
2019-06-26T05:37:44.474Z,101656.66
2019-06-26T05:40:19.238Z,101658.81
2019-06-26T05:42:53.738Z,101661.16
2019-06-26T05:45:28.240Z,101665.47
2019-06-26T05:48:02.866Z,101663.13
2019-06-26T05:50:37.452Z,101660.32
2019-06-26T05:53:11.876Z,101658.90
2019-06-26T05:55:46.529Z,101657.00
2019-06-26T05:58:21.000Z,101659.80
2019-06-26T06:00:55.446Z,101664.50
2019-06-26T06:03:29.859Z,101665.30
2019-06-26T06:06:04.453Z,101671.14
2019-06-26T06:08:38.936Z,101676.61
2019-06-26T06:11:13.378Z,101672.04
2019-06-26T06:13:47.866Z,101675.86
2019-06-26T06:16:22.374Z,101682.39
2019-06-26T06:18:56.793Z,101682.56
2019-06-26T06:21:31.230Z,101681.83
2019-06-26T06:24:06.290Z,101688.10
2019-06-26T06:26:40.854Z,101694.20
2019-06-26T06:29:15.283Z,101708.94
2019-06-26T06:31:50.811Z,101705.50
2019-06-26T06:34:25.510Z,101708.46
2019-06-26T06:37:00.017Z,101703.58
2019-06-26T06:39:34.451Z,101712.59
2019-06-26T06:42:08.910Z,101715.05
2019-06-26T06:44:43.329Z,101715.70
2019-06-26T06:47:17.843Z,101717.23
2019-06-26T06:49:52.387Z,101726.32
2019-06-26T06:52:26.860Z,101728.83
2019-06-26T06:55:01.303Z,101732.15
2019-06-26T06:57:35.761Z,101739.11
2019-06-26T07:00:10.443Z,101731.48
2019-06-26T07:02:45.036Z,101734.47
2019-06-26T07:05:19.950Z,101740.42
2019-06-26T07:07:54.473Z,101744.45
2019-06-26T07:10:28.893Z,101743.62
2019-06-26T07:13:03.411Z,101747.23
2019-06-26T07:15:37.844Z,101758.69
2019-06-26T07:18:12.362Z,101753.66
2019-06-26T07:20:46.780Z,101759.84
2019-06-26T07:23:21.225Z,101762.48
2019-06-26T07:25:55.671Z,101759.64
2019-06-26T07:28:30.104Z,101770.47
2019-06-26T07:31:04.599Z,101776.40
2019-06-26T07:33:39.112Z,101778.65
2019-06-26T07:36:13.539Z,101781.92
2019-06-26T07:38:48.002Z,101778.52
2019-06-26T07:41:22.560Z,101785.97
2019-06-26T07:43:57.011Z,101790.63
2019-06-26T07:46:31.489Z,101791.80
2019-06-26T07:49:07.087Z,101792.44
2019-06-26T07:51:41.698Z,101797.59
2019-06-26T07:54:16.285Z,101800.05
2019-06-26T07:56:50.717Z,101803.78
2019-06-26T07:59:25.137Z,101795.84
2019-06-26T08:01:59.715Z,101797.70
2019-06-26T08:04:34.148Z,101800.52
2019-06-26T08:07:08.630Z,101807.23
2019-06-26T08:09:43.148Z,101804.84
2019-06-26T08:12:17.671Z,101811.63
2019-06-26T08:14:52.165Z,101814.30
2019-06-26T08:17:26.671Z,101815.77
2019-06-26T08:20:01.189Z,101813.88
2019-06-26T08:22:35.742Z,101817.14
2019-06-26T08:25:10.629Z,101819.36
2019-06-26T08:27:45.065Z,101818.98
2019-06-26T08:30:21.049Z,101818.59
2019-06-26T08:32:55.605Z,101812.81
2019-06-26T08:35:30.068Z,101812.07
2019-06-26T08:38:12.484Z,101816.11
2019-06-26T08:40:40.789Z,101814.92
2019-06-26T08:43:15.292Z,101824.69
2019-06-26T08:45:49.812Z,101829.73
2019-06-26T08:48:38.819Z,101832.85
2019-06-26T08:51:00.534Z,101830.36
2019-06-26T08:53:35.340Z,101833.33
2019-06-26T08:56:09.834Z,101830.36
2019-06-26T08:58:44.915Z,101846.22
2019-06-26T09:01:19.596Z,101832.88
2019-06-26T09:03:54.090Z,101837.80
2019-06-26T09:06:28.544Z,101831.04
2019-06-26T09:09:03.030Z,101839.52
2019-06-26T09:11:39.427Z,101838.30
2019-06-26T09:14:13.916Z,101847.72
2019-06-26T09:16:48.410Z,101843.72
2019-06-26T09:19:22.818Z,101843.05
2019-06-26T09:21:57.275Z,101844.80
2019-06-26T09:24:31.772Z,101853.18
2019-06-26T09:27:06.220Z,101853.55
2019-06-26T09:29:40.883Z,101853.05
2019-06-26T09:32:15.479Z,101866.63
2019-06-26T09:34:49.907Z,101879.45
2019-06-26T09:37:24.353Z,101866.58
2019-06-26T09:39:58.777Z,101864.30
2019-06-26T09:42:33.261Z,101861.64
2019-06-26T09:45:08.279Z,101869.91
2019-06-26T09:47:42.784Z,101868.85
2019-06-26T09:50:17.341Z,101875.65
2019-06-26T09:52:51.792Z,101861.91
2019-06-26T09:55:26.380Z,101866.81
2019-06-26T09:58:01.044Z,101866.17
2019-06-26T10:00:35.745Z,101868.83
2019-06-26T10:03:10.391Z,101869.69
2019-06-26T10:05:44.880Z,101871.23
2019-06-26T10:08:19.436Z,101874.56
2019-06-26T10:10:54.827Z,101873.40
2019-06-26T10:13:29.380Z,101872.60
2019-06-26T10:16:03.849Z,101876.59
2019-06-26T10:18:38.428Z,101870.73
2019-06-26T10:21:12.924Z,101881.21
2019-06-26T10:23:47.441Z,101883.16
2019-06-26T10:26:22.222Z,101880.70
2019-06-26T10:28:56.653Z,101892.99
2019-06-26T10:31:31.180Z,101884.11
2019-06-26T10:34:09.722Z,101895.04
2019-06-26T10:36:42.898Z,101887.05
2019-06-26T10:39:17.361Z,101895.26
2019-06-26T10:41:54.851Z,101893.20
2019-06-26T10:44:28.085Z,101893.35
2019-06-26T10:47:02.639Z,101899.65
2019-06-26T10:49:37.293Z,101901.41
2019-06-26T10:52:11.917Z,101906.84
2019-06-26T10:54:46.386Z,101900.09
2019-06-26T10:57:20.874Z,101905.88
2019-06-26T10:59:56.016Z,101913.86
2019-06-26T11:02:30.696Z,101899.73
2019-06-26T11:05:09.173Z,101909.27
2019-06-26T11:07:43.773Z,101919.00
2019-06-26T11:10:18.772Z,101905.60
2019-06-26T11:12:53.200Z,101910.44
2019-06-26T11:15:27.711Z,101902.80
2019-06-26T11:18:02.127Z,101910.51
2019-06-26T11:20:36.701Z,101918.05
2019-06-26T11:23:11.134Z,101914.88
2019-06-26T11:25:45.645Z,101914.47
2019-06-26T11:28:21.217Z,101917.59
2019-06-26T11:30:56.039Z,101918.45
2019-06-26T11:33:30.564Z,101934.77
2019-06-26T11:36:05.215Z,101918.02
2019-06-26T11:38:42.507Z,101910.56
2019-06-26T11:41:16.939Z,101917.13
2019-06-26T11:43:51.427Z,101913.82
2019-06-26T11:46:25.948Z,101912.22
2019-06-26T11:49:00.904Z,101914.13
2019-06-26T11:51:35.492Z,101915.47
2019-06-26T11:54:09.997Z,101923.96
2019-06-26T11:56:44.653Z,101916.99
2019-06-26T11:59:19.081Z,101929.66
2019-06-26T12:01:53.679Z,101923.27
2019-06-26T12:04:29.037Z,101942.53
2019-06-26T12:07:03.649Z,101930.25
2019-06-26T12:09:39.176Z,101924.48
2019-06-26T12:12:13.668Z,101942.77
2019-06-26T12:14:48.224Z,101940.11
2019-06-26T12:17:22.674Z,101931.05
2019-06-26T12:19:57.102Z,101936.33
2019-06-26T12:22:31.611Z,101959.31
2019-06-26T12:25:07.009Z,101950.74
2019-06-26T12:27:41.458Z,101950.62
2019-06-26T12:30:16.111Z,101937.07
2019-06-26T12:33:02.474Z,101941.73
2019-06-26T12:35:26.942Z,101947.41
2019-06-26T12:38:01.384Z,101941.33
2019-06-26T12:40:35.890Z,101946.56
2019-06-26T12:43:10.402Z,101943.99
2019-06-26T12:45:44.903Z,101941.60
2019-06-26T12:48:19.427Z,101951.48
2019-06-26T12:50:54.004Z,101942.91
2019-06-26T12:53:28.513Z,101951.36
2019-06-26T12:56:03.003Z,101951.08
2019-06-26T12:58:37.516Z,101947.09
2019-06-26T13:01:12.012Z,101947.79
2019-06-26T13:03:46.529Z,101953.71
2019-06-26T13:06:20.930Z,101955.95
2019-06-26T13:08:56.598Z,101957.12
2019-06-26T13:11:31.111Z,101980.44
2019-06-26T13:14:05.856Z,101959.72
2019-06-26T13:16:40.405Z,101961.37
2019-06-26T13:19:14.915Z,101956.29
2019-06-26T13:21:49.415Z,101964.88
2019-06-26T13:24:23.888Z,101959.29
2019-06-26T13:26:58.384Z,101968.35
2019-06-26T13:29:32.821Z,101983.66
2019-06-26T13:32:07.243Z,101955.64
2019-06-26T13:34:41.716Z,101966.70
2019-06-26T13:37:16.149Z,101973.00
2019-06-26T13:39:50.597Z,101962.09
2019-06-26T13:42:25.081Z,101980.27
2019-06-26T13:44:59.523Z,101965.33
2019-06-26T13:47:34.022Z,101965.94
2019-06-26T13:50:08.978Z,101971.83
2019-06-26T13:52:43.461Z,101962.43
2019-06-26T13:55:18.091Z,101964.47
2019-06-26T13:57:52.646Z,101977.00
2019-06-26T14:00:27.615Z,101970.61
2019-06-26T14:03:02.118Z,101983.34
2019-06-26T14:05:36.680Z,101985.92
2019-06-26T14:08:11.188Z,101978.64
2019-06-26T14:10:45.730Z,101972.30
2019-06-26T14:13:20.295Z,101972.92
2019-06-26T14:15:56.014Z,101978.70
2019-06-26T14:18:30.655Z,101997.82
2019-06-26T14:21:05.556Z,101989.69
2019-06-26T14:23:39.980Z,101989.31
2019-06-26T14:26:14.454Z,101994.28
2019-06-26T14:28:48.844Z,101996.50
2019-06-26T14:31:23.760Z,102008.17
2019-06-26T14:33:58.261Z,102024.92
2019-06-26T14:36:32.913Z,102020.48
2019-06-26T14:39:07.943Z,102018.17
2019-06-26T14:41:42.568Z,102012.23
2019-06-26T14:44:17.012Z,102018.27
2019-06-26T14:46:51.584Z,102011.13
2019-06-26T14:49:26.166Z,102023.75
2019-06-26T14:52:00.813Z,102023.55
2019-06-26T14:54:35.300Z,102022.34
2019-06-26T14:57:10.033Z,102029.13
2019-06-26T14:59:44.451Z,102054.76
2019-06-26T15:02:19.098Z,102037.55
2019-06-26T15:04:53.544Z,102032.44
2019-06-26T15:07:29.103Z,102034.25
2019-06-26T15:10:09.358Z,102027.91
2019-06-26T15:12:43.927Z,102031.11
2019-06-26T15:15:19.993Z,102037.68
2019-06-26T15:17:54.625Z,102031.31
2019-06-26T15:20:29.130Z,102032.84
2019-06-26T15:23:03.644Z,102029.15
2019-06-26T15:25:38.063Z,102051.80
2019-06-26T15:28:12.581Z,102036.72
2019-06-26T15:30:47.049Z,102033.86
2019-06-26T15:33:21.504Z,102042.47
2019-06-26T15:35:56.031Z,102047.08
2019-06-26T15:38:30.669Z,102047.02
2019-06-26T15:41:05.223Z,102051.06
2019-06-26T15:43:39.863Z,102047.04
2019-06-26T15:46:14.426Z,102062.30
2019-06-26T15:48:50.386Z,102046.12
2019-06-26T15:51:26.100Z,102046.66
2019-06-26T15:54:00.570Z,102049.33
2019-06-26T15:56:35.122Z,102040.70
2019-06-26T15:59:09.718Z,102051.41
2019-06-26T16:01:44.296Z,102061.42
2019-06-26T16:04:18.836Z,102053.62
2019-06-26T16:06:53.437Z,102058.21
2019-06-26T16:09:27.982Z,102055.61
2019-06-26T16:12:02.473Z,102073.25
2019-06-26T16:14:37.001Z,102068.20
2019-06-26T16:17:15.896Z,102069.96
2019-06-26T16:19:50.329Z,102067.70
2019-06-26T16:22:32.054Z,102063.22
2019-06-26T16:25:00.907Z,102065.41
2019-06-26T16:27:35.514Z,102070.23
2019-06-26T16:30:10.122Z,102069.80
2019-06-26T16:32:44.635Z,102083.59
2019-06-26T16:35:19.328Z,102078.42
2019-06-26T16:37:53.896Z,102082.14
2019-06-26T16:40:28.321Z,102094.91
2019-06-26T16:43:02.754Z,102091.12
2019-06-26T16:45:37.194Z,102085.64
2019-06-26T16:48:11.614Z,102097.42
2019-06-26T16:50:46.086Z,102091.37
2019-06-26T16:53:20.570Z,102081.99
2019-06-26T16:55:55.150Z,102106.99
2019-06-26T16:58:29.606Z,102108.63
2019-06-26T17:01:04.327Z,102109.80
2019-06-26T17:03:38.823Z,102113.86
2019-06-26T17:06:13.362Z,102120.16
2019-06-26T17:08:47.857Z,102113.82
2019-06-26T17:11:22.450Z,102114.48
2019-06-26T17:13:56.886Z,102114.91
2019-06-26T17:16:31.425Z,102117.47
2019-06-26T17:19:05.967Z,102126.93
2019-06-26T17:21:40.436Z,102128.77
2019-06-26T17:24:17.129Z,102118.97
2019-06-26T17:26:51.742Z,102120.25
2019-06-26T17:29:27.150Z,102120.09
2019-06-26T17:32:01.666Z,102127.11
2019-06-26T17:34:36.366Z,102128.06
2019-06-26T17:37:10.858Z,102130.42
2019-06-26T17:39:45.358Z,102132.88
2019-06-26T17:42:19.793Z,102124.30
2019-06-26T17:44:54.279Z,102118.03
2019-06-26T17:47:28.800Z,102138.59
2019-06-26T17:50:05.136Z,102121.14
2019-06-26T17:52:39.700Z,102129.45
2019-06-26T17:55:15.067Z,102133.56
2019-06-26T17:57:49.568Z,102136.20
2019-06-26T18:00:27.034Z,102142.27
2019-06-26T18:03:01.505Z,102135.66
2019-06-26T18:05:35.954Z,102133.92
2019-06-26T18:08:10.369Z,102137.98
2019-06-26T18:10:44.925Z,102154.61
2019-06-26T18:13:19.442Z,102151.24
2019-06-26T18:15:53.936Z,102140.08
2019-06-26T18:18:28.592Z,102143.19
2019-06-26T18:21:03.131Z,102150.72
2019-06-26T18:23:38.754Z,102147.95
2019-06-26T18:26:14.065Z,102138.72
2019-06-26T18:28:48.687Z,102158.64
2019-06-26T18:31:23.461Z,102151.96
2019-06-26T18:33:57.911Z,102164.21
2019-06-26T18:36:33.634Z,102167.66
2019-06-26T18:39:09.120Z,102162.77
2019-06-26T18:41:43.544Z,102158.73
2019-06-26T18:44:18.107Z,102158.16
2019-06-26T18:46:52.552Z,102163.57
2019-06-26T18:49:27.068Z,102156.31
2019-06-26T18:52:01.508Z,102163.62
2019-06-26T18:54:36.022Z,102163.86
2019-06-26T18:57:11.680Z,102173.55
2019-06-26T18:59:46.224Z,102183.42
2019-06-26T19:02:20.748Z,102189.71
2019-06-26T19:04:56.193Z,102188.16
2019-06-26T19:07:30.701Z,102189.98
2019-06-26T19:10:10.465Z,102202.34
2019-06-26T19:12:45.026Z,102195.37
2019-06-26T19:15:19.814Z,102204.93
2019-06-26T19:17:54.417Z,102218.89
2019-06-26T19:20:29.043Z,102209.13
2019-06-26T19:23:03.611Z,102214.85
2019-06-26T19:25:38.146Z,102218.59
2019-06-26T19:28:12.556Z,102219.84
2019-06-26T19:30:47.022Z,102223.02
2019-06-26T19:33:21.473Z,102223.95
2019-06-26T19:35:56.001Z,102236.45
2019-06-26T19:38:30.482Z,102234.96
2019-06-26T19:41:08.389Z,102231.34
2019-06-26T19:43:41.507Z,102236.32
2019-06-26T19:46:16.222Z,102243.20
2019-06-26T19:48:50.664Z,102227.48
2019-06-26T19:51:25.107Z,102237.08
2019-06-26T19:53:59.609Z,102234.77
2019-06-26T19:56:34.077Z,102240.47
2019-06-26T19:59:08.523Z,102235.12
2019-06-26T20:01:43.042Z,102238.70
2019-06-26T20:04:17.466Z,102236.32
2019-06-26T20:06:51.895Z,102242.22
2019-06-26T20:09:26.457Z,102235.83
2019-06-26T20:12:00.944Z,102243.25
2019-06-26T20:14:35.439Z,102245.50
2019-06-26T20:17:09.880Z,102238.55
2019-06-26T20:19:44.330Z,102243.02
2019-06-26T20:22:19.083Z,102239.92
2019-06-26T20:24:57.414Z,102241.76
2019-06-26T20:27:31.832Z,102249.53
2019-06-26T20:30:09.750Z,102242.36
2019-06-26T20:32:44.255Z,102243.00
2019-06-26T20:35:19.657Z,102248.20
2019-06-26T20:37:54.432Z,102247.07
2019-06-26T20:40:28.935Z,102249.09
2019-06-26T20:43:03.723Z,102250.14
2019-06-26T20:45:38.248Z,102256.55
2019-06-26T20:48:12.717Z,102267.39
2019-06-26T20:50:47.197Z,102265.08
2019-06-26T20:53:21.791Z,102265.56
2019-06-26T20:55:56.427Z,102266.03
2019-06-26T20:58:30.955Z,102271.90
2019-06-26T21:01:05.461Z,102278.52
2019-06-26T21:03:39.908Z,102275.66
2019-06-26T21:06:14.353Z,102273.85
2019-06-26T21:08:48.875Z,102273.66
2019-06-26T21:11:23.382Z,102275.14
2019-06-26T21:13:57.904Z,102267.95
2019-06-26T21:16:32.344Z,102263.34
2019-06-26T21:19:06.791Z,102267.84
2019-06-26T21:21:41.303Z,102264.33
2019-06-26T21:24:15.772Z,102273.71
2019-06-26T21:26:50.261Z,102274.66
2019-06-26T21:29:24.789Z,102272.83
2019-06-26T21:31:59.282Z,102267.25
2019-06-26T21:34:33.725Z,102275.02
2019-06-26T21:37:11.556Z,102268.46
2019-06-26T21:39:46.207Z,102278.73
2019-06-26T21:42:20.684Z,102277.84
2019-06-26T21:44:55.207Z,102279.42
2019-06-26T21:47:29.704Z,102272.29
2019-06-26T21:50:05.891Z,102276.91
2019-06-26T21:52:40.345Z,102276.91
2019-06-26T21:55:15.029Z,102294.78
2019-06-26T21:58:07.358Z,102297.72
2019-06-26T22:01:00.170Z,102284.75
2019-06-26T22:03:52.786Z,102290.20
2019-06-26T22:06:31.701Z,102298.94
2019-06-26T22:09:09.066Z,102284.55
2019-06-26T22:11:45.187Z,102277.44
2019-06-26T22:14:19.861Z,102278.95
2019-06-26T22:16:54.468Z,102275.75
2019-06-26T22:19:29.811Z,102286.03
2019-06-26T22:22:04.666Z,102284.34
2019-06-26T22:24:39.091Z,102285.14
2019-06-26T22:27:13.699Z,102285.70
2019-06-26T22:29:48.180Z,102287.19
2019-06-26T22:32:22.613Z,102291.06
2019-06-26T22:34:57.094Z,102288.55
2019-06-26T22:37:31.604Z,102283.72
2019-06-26T22:40:06.450Z,102288.88
2019-06-26T22:42:41.062Z,102290.44
2019-06-26T22:45:15.900Z,102294.52
2019-06-26T22:47:50.408Z,102289.49
2019-06-26T22:50:24.827Z,102289.28
2019-06-26T22:52:59.395Z,102302.21
2019-06-26T22:55:33.887Z,102298.44
2019-06-26T22:58:08.487Z,102290.53
2019-06-26T23:00:43.006Z,102303.54
2019-06-26T23:03:17.595Z,102305.16
2019-06-26T23:05:52.124Z,102313.38
2019-06-26T23:08:26.669Z,102309.34
2019-06-26T23:11:01.134Z,102316.05
2019-06-26T23:13:35.622Z,102313.23
2019-06-26T23:16:10.252Z,102314.31
2019-06-26T23:18:44.811Z,102314.37
2019-06-26T23:21:19.390Z,102315.59
2019-06-26T23:23:53.881Z,102316.55
2019-06-26T23:26:28.383Z,102321.46
2019-06-26T23:29:02.948Z,102322.13
2019-06-26T23:31:37.394Z,102325.09
2019-06-26T23:34:11.899Z,102323.50
2019-06-26T23:36:46.335Z,102330.80
2019-06-26T23:39:20.834Z,102331.45
2019-06-26T23:41:55.329Z,102324.78
2019-06-26T23:44:29.763Z,102330.47
2019-06-26T23:47:04.262Z,102333.05
2019-06-26T23:49:38.704Z,102327.09
2019-06-26T23:52:13.142Z,102320.95
2019-06-26T23:54:47.648Z,102331.87
2019-06-26T23:57:22.096Z,102332.81
2019-06-26T23:59:56.603Z,102328.92
